Time;durP1;ratioP1;P1;durP2;ratioP2;P2;SDS_P1;SDS_P2;PMS_P1;PMS_P2;Temp;Humidity;BMP_temperature;BMP_pressure;BME280_temperature;BME280_humidity;BME280_pressure;Samples;Min_cycle;Max_cycle;Signal;HPM_P1;HPM_P2
2023/07/22 00:02:13;;;;;;;4.40;2.30;;;21.80;99.90;;;;;;5081595;28;20389;-76
2023/07/22 00:04:39;;;;;;;4.90;2.28;;;21.80;99.90;;;;;;5065591;28;20024;-76
2023/07/22 00:07:05;;;;;;;3.60;2.20;;;21.80;99.90;;;;;;5079909;28;20087;-76
2023/07/22 00:09:33;;;;;;;2.88;2.17;;;21.80;99.90;;;;;;5083807;28;20115;-75
2023/07/22 00:11:59;;;;;;;2.35;2.15;;;21.90;99.90;;;;;;5080397;28;20027;-76
2023/07/22 00:14:25;;;;;;;2.83;2.63;;;21.90;99.90;;;;;;5079825;28;20025;-76
2023/07/22 00:16:51;;;;;;;2.80;2.58;;;21.80;99.90;;;;;;5083666;28;20028;-76
2023/07/22 00:19:16;;;;;;;2.92;2.65;;;21.80;99.90;;;;;;5081015;28;20017;-76
2023/07/22 00:21:45;;;;;;;2.17;2.05;;;21.90;99.90;;;;;;5087186;28;20024;-76
2023/07/22 00:24:11;;;;;;;3.10;2.50;;;21.80;99.90;;;;;;5080864;28;20548;-76
2023/07/22 00:26:36;;;;;;;2.88;2.67;;;21.90;99.90;;;;;;5083356;28;20036;-76
2023/07/22 00:29:02;;;;;;;4.05;2.40;;;21.90;99.90;;;;;;5080498;28;20069;-76
2023/07/22 00:31:28;;;;;;;2.40;2.20;;;21.80;99.90;;;;;;5065908;28;20024;-76
2023/07/22 00:33:54;;;;;;;3.78;2.70;;;21.90;99.90;;;;;;5065361;28;20024;-76
2023/07/22 00:36:20;;;;;;;2.80;2.60;;;21.90;99.90;;;;;;5080050;28;20024;-76
2023/07/22 00:38:45;;;;;;;2.85;2.33;;;21.70;99.90;;;;;;5080330;28;20029;-76
2023/07/22 00:41:11;;;;;;;3.30;3.00;;;21.70;99.90;;;;;;5085478;28;20489;-76
2023/07/22 00:43:38;;;;;;;4.63;2.72;;;21.70;99.90;;;;;;5083325;28;20027;-76
2023/07/22 00:46:04;;;;;;;3.22;2.42;;;21.70;99.90;;;;;;5079675;28;20540;-76
2023/07/22 00:48:30;;;;;;;3.53;3.03;;;21.70;99.90;;;;;;5065553;28;20024;-76
2023/07/22 00:50:56;;;;;;;2.55;2.35;;;21.80;99.90;;;;;;5079796;28;20099;-76
2023/07/22 00:53:25;;;;;;;6.32;3.13;;;21.80;99.90;;;;;;5083244;28;20126;-76
2023/07/22 00:55:51;;;;;;;3.95;2.50;;;21.80;99.90;;;;;;5083188;28;20478;-76
2023/07/22 00:58:17;;;;;;;2.00;1.90;;;21.80;99.90;;;;;;5065266;28;20042;-76
2023/07/22 01:00:43;;;;;;;5.47;2.45;;;21.80;99.90;;;;;;5083277;28;20067;-76
2023/07/22 01:03:08;;;;;;;2.40;2.20;;;21.80;99.90;;;;;;5083443;28;20039;-76
2023/07/22 01:05:36;;;;;;;2.33;2.13;;;21.80;99.90;;;;;;5083194;28;20055;-76
2023/07/22 01:08:02;;;;;;;3.33;2.00;;;21.70;99.90;;;;;;5079499;28;20024;-76
2023/07/22 01:10:28;;;;;;;5.97;2.25;;;21.70;99.90;;;;;;5082959;28;20035;-76
2023/07/22 01:12:56;;;;;;;2.88;2.47;;;21.80;99.90;;;;;;5079073;28;20038;-76
2023/07/22 01:15:23;;;;;;;2.50;2.30;;;21.80;99.90;;;;;;5079771;28;20021;-76
2023/07/22 01:17:50;;;;;;;2.90;2.20;;;21.80;99.90;;;;;;5064161;28;20367;-76
2023/07/22 01:20:18;;;;;;;2.28;2.08;;;21.80;99.90;;;;;;5082137;28;20085;-76
2023/07/22 01:22:53;;;;;;;2.50;2.40;;;21.80;99.90;;;;;;5079936;28;20085;-76
2023/07/22 01:25:26;;;;;;;2.20;2.10;;;21.90;99.90;;;;;;5081068;28;20016;-76
2023/07/22 01:27:51;;;;;;;4.78;2.47;;;21.90;99.90;;;;;;5078860;28;20070;-76
2023/07/22 01:30:19;;;;;;;2.33;2.13;;;21.90;99.90;;;;;;5077867;28;20052;-76
2023/07/22 01:32:45;;;;;;;2.45;2.25;;;21.90;99.90;;;;;;5079988;28;20035;-76
2023/07/22 01:35:11;;;;;;;2.20;1.95;;;22.00;99.90;;;;;;5081705;28;20022;-76
2023/07/22 01:37:36;;;;;;;2.58;2.38;;;22.00;99.90;;;;;;5080368;28;20488;-75
2023/07/22 01:40:11;;;;;;;2.42;2.22;;;22.00;99.90;;;;;;5081500;28;20021;-76
2023/07/22 01:42:42;;;;;;;2.30;2.10;;;22.00;99.90;;;;;;5072887;28;20063;-75
2023/07/22 01:45:09;;;;;;;2.33;2.13;;;22.00;99.90;;;;;;5079156;28;20040;-75
2023/07/22 01:47:35;;;;;;;4.97;2.20;;;22.00;99.90;;;;;;5064274;28;20032;-76
2023/07/22 01:50:02;;;;;;;2.50;2.30;;;22.00;99.90;;;;;;5077830;28;20020;-77
2023/07/22 01:52:31;;;;;;;5.22;2.20;;;22.00;99.90;;;;;;5082243;28;20036;-76
2023/07/22 01:54:56;;;;;;;2.20;2.10;;;22.10;99.90;;;;;;5079583;28;20024;-76
2023/07/22 01:57:22;;;;;;;1.95;1.50;;;22.10;99.90;;;;;;5082863;28;20475;-76
2023/07/22 01:59:48;;;;;;;2.08;1.98;;;22.10;99.90;;;;;;5082265;28;20077;-76
2023/07/22 02:02:14;;;;;;;3.67;2.03;;;22.10;99.90;;;;;;5082892;28;20554;-76
2023/07/22 02:04:40;;;;;;;2.72;2.10;;;22.00;99.90;;;;;;5078930;28;20501;-75
2023/07/22 02:07:05;;;;;;;2.95;2.20;;;22.00;99.90;;;;;;5082412;28;20028;-76
2023/07/22 02:09:35;;;;;;;6.60;2.20;;;22.10;99.90;;;;;;5078863;28;20024;-76
2023/07/22 02:12:01;;;;;;;2.30;2.10;;;22.10;99.90;;;;;;5089760;28;20020;-76
2023/07/22 02:14:27;;;;;;;3.55;2.45;;;22.10;99.90;;;;;;5077941;28;20032;-76
2023/07/22 02:16:53;;;;;;;2.75;2.28;;;22.10;99.90;;;;;;5082051;28;20043;-76
2023/07/22 02:19:18;;;;;;;3.10;2.85;;;22.10;99.90;;;;;;5079167;28;20059;-76
2023/07/22 02:21:44;;;;;;;6.00;2.80;;;22.10;99.90;;;;;;5082097;28;20028;-76
2023/07/22 02:24:10;;;;;;;4.18;3.35;;;22.10;99.90;;;;;;5085955;28;20025;-76
2023/07/22 02:26:36;;;;;;;4.97;2.95;;;22.00;99.90;;;;;;5078639;28;20052;-76
2023/07/22 02:29:02;;;;;;;4.05;2.67;;;22.00;99.90;;;;;;5063997;28;20035;-76
2023/07/22 02:31:28;;;;;;;4.40;2.90;;;22.00;99.90;;;;;;5081267;28;20017;-76
2023/07/22 02:33:53;;;;;;;2.75;2.55;;;22.10;99.90;;;;;;5086244;28;20028;-76
2023/07/22 02:36:19;;;;;;;2.72;2.20;;;22.10;99.90;;;;;;5082207;28;20027;-76
2023/07/22 02:38:45;;;;;;;2.72;2.53;;;22.10;99.90;;;;;;5086038;28;20028;-76
2023/07/22 02:41:10;;;;;;;3.50;2.42;;;22.10;99.90;;;;;;5062469;28;20116;-76
2023/07/22 02:43:36;;;;;;;6.07;2.10;;;22.10;99.90;;;;;;5084070;28;20064;-76
2023/07/22 02:46:03;;;;;;;2.60;2.38;;;22.00;99.90;;;;;;5082504;28;20056;-76
2023/07/22 02:48:31;;;;;;;5.15;2.00;;;22.00;99.90;;;;;;5085659;28;20477;-76
2023/07/22 02:51:04;;;;;;;2.90;2.13;;;21.90;99.90;;;;;;5081897;28;20027;-76
2023/07/22 02:53:31;;;;;;;3.20;2.92;;;22.00;99.90;;;;;;5082576;28;20565;-76
2023/07/22 02:55:56;;;;;;;2.78;2.58;;;22.00;99.90;;;;;;5074759;28;20069;-76
2023/07/22 02:58:22;;;;;;;4.68;2.35;;;22.00;99.90;;;;;;5081230;28;20024;-75
2023/07/22 03:00:48;;;;;;;3.42;2.42;;;21.90;99.90;;;;;;5085233;28;20020;-76
2023/07/22 03:03:13;;;;;;;5.00;2.00;;;21.90;99.90;;;;;;5081924;28;20040;-76
2023/07/22 03:05:39;;;;;;;2.70;2.08;;;21.80;99.90;;;;;;5067464;28;20440;-76
2023/07/22 03:08:06;;;;;;;4.22;2.42;;;21.80;99.90;;;;;;5081854;28;20028;-75
2023/07/22 03:10:32;;;;;;;2.83;2.20;;;21.80;99.90;;;;;;5081237;28;20023;-76
2023/07/22 03:12:59;;;;;;;2.40;2.20;;;21.90;99.90;;;;;;5081738;28;20021;-75
2023/07/22 03:15:28;;;;;;;3.65;2.53;;;21.90;99.90;;;;;;5085309;28;20046;-76
2023/07/22 03:17:55;;;;;;;3.42;2.13;;;21.80;99.90;;;;;;5082098;28;20087;-75
2023/07/22 03:20:24;;;;;;;3.28;1.63;;;21.70;99.90;;;;;;5084609;28;20016;-76
2023/07/22 03:22:50;;;;;;;4.63;2.30;;;21.70;99.90;;;;;;5083104;28;20026;-76
2023/07/22 03:25:17;;;;;;;2.20;2.10;;;21.70;99.90;;;;;;5066659;28;20024;-76
2023/07/22 03:27:44;;;;;;;5.50;2.17;;;21.70;99.90;;;;;;5081593;28;20478;-76
2023/07/22 03:30:14;;;;;;;2.13;2.03;;;21.70;99.90;;;;;;5073462;28;20027;-76
2023/07/22 03:32:42;;;;;;;2.40;2.20;;;21.70;99.90;;;;;;5083809;28;20027;-76
2023/07/22 03:35:09;;;;;;;5.57;2.00;;;21.70;99.90;;;;;;5083741;28;20012;-76
2023/07/22 03:37:36;;;;;;;2.42;2.17;;;21.70;99.90;;;;;;5081725;28;20054;-76
2023/07/22 03:40:39;;;;;;;2.72;1.88;;;21.70;99.90;;;;;;5083717;28;20020;-76
2023/07/22 03:42:58;;;;;;;4.53;2.63;;;21.80;99.90;;;;;;5079110;28;20028;-76
2023/07/22 03:45:23;;;;;;;4.47;2.47;;;21.70;99.90;;;;;;5083304;28;20048;-76
2023/07/22 03:47:57;;;;;;;1.92;1.83;;;21.60;99.90;;;;;;5083313;28;20172;-76
2023/07/22 03:50:23;;;;;;;3.88;2.40;;;21.70;99.90;;;;;;5082435;28;20035;-76
2023/07/22 03:52:48;;;;;;;3.90;2.00;;;21.80;99.90;;;;;;5087572;28;20028;-76
2023/07/22 03:55:14;;;;;;;3.45;2.03;;;21.70;99.90;;;;;;5063460;28;20040;-76
2023/07/22 03:57:40;;;;;;;3.00;2.25;;;21.80;99.90;;;;;;5079626;28;20394;-76
2023/07/22 04:00:09;;;;;;;4.68;2.20;;;21.70;99.90;;;;;;5082750;28;20016;-76
2023/07/22 04:02:35;;;;;;;4.30;2.10;;;21.70;99.90;;;;;;5084272;28;20012;-76
2023/07/22 04:05:00;;;;;;;3.58;1.98;;;21.70;99.90;;;;;;5082209;28;20035;-76
2023/07/22 04:07:26;;;;;;;1.77;1.67;;;21.70;99.90;;;;;;5082761;28;20187;-76
2023/07/22 04:09:52;;;;;;;2.38;1.90;;;21.60;99.90;;;;;;5082385;28;20047;-76
2023/07/22 04:12:17;;;;;;;2.90;2.63;;;21.60;99.90;;;;;;5079468;28;20082;-76
2023/07/22 04:14:43;;;;;;;4.15;2.15;;;21.60;99.90;;;;;;5082353;28;20027;-76
2023/07/22 04:17:09;;;;;;;4.15;2.00;;;21.60;99.90;;;;;;5083419;28;20103;-76
2023/07/22 04:19:35;;;;;;;2.90;2.30;;;21.50;99.90;;;;;;5062658;28;20739;-76
2023/07/22 04:22:04;;;;;;;3.70;2.10;;;21.50;99.90;;;;;;5064578;28;20036;-76
2023/07/22 04:24:31;;;;;;;2.38;2.28;;;21.50;99.90;;;;;;5083291;28;20504;-76
2023/07/22 04:26:57;;;;;;;3.20;2.47;;;21.50;99.90;;;;;;5087781;28;20012;-76
2023/07/22 04:29:23;;;;;;;2.55;2.35;;;21.50;99.90;;;;;;5081896;28;20032;-76
2023/07/22 04:31:48;;;;;;;2.17;2.08;;;21.50;99.90;;;;;;5083228;28;20066;-76
2023/07/22 04:34:14;;;;;;;2.63;2.42;;;21.50;99.90;;;;;;5063896;28;20539;-76
2023/07/22 04:36:40;;;;;;;2.60;2.40;;;21.40;99.90;;;;;;5082828;28;20013;-75
2023/07/22 04:39:06;;;;;;;2.42;2.22;;;21.40;99.90;;;;;;5074333;28;20110;-76
2023/07/22 04:41:32;;;;;;;3.30;2.20;;;21.30;99.90;;;;;;5080389;28;20036;-76
2023/07/22 04:44:01;;;;;;;8.35;2.40;;;21.20;99.90;;;;;;5082043;28;20028;-76
2023/07/22 04:46:26;;;;;;;3.78;2.95;;;21.20;99.90;;;;;;5064474;28;20139;-76
2023/07/22 04:48:56;;;;;;;6.57;2.53;;;21.20;99.90;;;;;;5063958;28;20123;-76
2023/07/22 04:51:22;;;;;;;3.13;2.33;;;21.30;99.90;;;;;;5065950;28;20111;-76
2023/07/22 04:53:47;;;;;;;2.85;2.17;;;21.40;99.90;;;;;;5065028;28;20111;-76
2023/07/22 04:56:13;;;;;;;3.15;2.78;;;21.40;99.90;;;;;;5081740;28;20031;-75
2023/07/22 04:58:39;;;;;;;2.75;2.53;;;21.50;99.90;;;;;;5082476;28;20511;-76
2023/07/22 05:01:05;;;;;;;4.00;2.53;;;21.50;99.90;;;;;;5081648;28;20409;-75
2023/07/22 05:03:30;;;;;;;5.15;3.17;;;21.50;99.90;;;;;;5082147;28;20024;-75
2023/07/22 05:05:57;;;;;;;2.63;2.42;;;21.60;99.90;;;;;;5063826;28;20039;-76
2023/07/22 05:08:23;;;;;;;2.90;2.70;;;21.60;99.90;;;;;;5080718;28;20031;-76
2023/07/22 05:10:49;;;;;;;4.68;2.78;;;21.50;99.90;;;;;;5078220;28;20024;-76
2023/07/22 05:13:16;;;;;;;3.03;2.78;;;21.50;99.90;;;;;;5081868;28;20027;-76
2023/07/22 05:15:42;;;;;;;5.55;2.70;;;21.50;99.90;;;;;;5081582;28;20489;-75
2023/07/22 05:18:07;;;;;;;3.00;2.80;;;21.60;99.90;;;;;;5081973;28;20208;-76
2023/07/22 05:20:33;;;;;;;3.67;3.00;;;21.60;99.90;;;;;;5081837;28;20028;-76
2023/07/22 05:22:59;;;;;;;3.17;2.85;;;21.50;99.90;;;;;;5081504;28;20024;-76
2023/07/22 05:25:25;;;;;;;6.72;2.92;;;21.60;99.90;;;;;;5081784;28;20026;-76
2023/07/22 05:27:50;;;;;;;3.45;3.15;;;21.60;99.90;;;;;;5081282;28;20024;-76
2023/07/22 05:30:16;;;;;;;3.05;2.67;;;21.60;99.90;;;;;;5082105;28;20052;-76
2023/07/22 05:32:42;;;;;;;3.97;2.97;;;21.60;99.90;;;;;;5081003;28;20028;-75
2023/07/22 05:35:08;;;;;;;3.90;2.58;;;21.70;99.90;;;;;;5082179;28;20106;-76
2023/07/22 05:37:34;;;;;;;4.78;2.90;;;21.80;99.90;;;;;;5080860;28;20486;-76
2023/07/22 05:40:01;;;;;;;3.47;2.80;;;21.90;99.90;;;;;;5064191;28;20062;-76
2023/07/22 05:42:27;;;;;;;5.72;2.85;;;22.00;99.90;;;;;;5062721;28;20021;-76
2023/07/22 05:44:55;;;;;;;3.45;3.25;;;22.10;99.90;;;;;;5063951;28;20024;-76
2023/07/22 05:47:21;;;;;;;6.30;3.55;;;22.10;99.90;;;;;;5071274;28;20118;-76
2023/07/22 05:49:47;;;;;;;4.07;3.78;;;22.20;99.90;;;;;;5079604;28;20382;-77
2023/07/22 05:52:13;;;;;;;6.88;4.18;;;22.30;99.90;;;;;;5081852;28;20028;-76
2023/07/22 05:54:39;;;;;;;6.82;4.15;;;22.40;99.90;;;;;;5079361;28;20498;-76
2023/07/22 05:57:05;;;;;;;5.47;3.70;;;22.40;99.90;;;;;;5071852;28;20035;-76
2023/07/22 05:59:31;;;;;;;5.07;3.65;;;22.40;99.90;;;;;;5080604;28;20020;-76
2023/07/22 06:01:57;;;;;;;6.00;3.65;;;22.50;99.90;;;;;;5081911;28;20054;-75
2023/07/22 06:04:23;;;;;;;4.25;3.75;;;22.60;99.90;;;;;;5081314;28;20486;-77
2023/07/22 06:06:48;;;;;;;7.18;3.80;;;22.70;99.90;;;;;;5086410;28;20027;-76
2023/07/22 06:09:14;;;;;;;5.20;3.65;;;22.70;99.90;;;;;;5084304;28;20036;-76
2023/07/22 06:11:40;;;;;;;4.10;3.72;;;22.80;99.90;;;;;;5083063;28;20021;-76
2023/07/22 06:14:06;;;;;;;7.47;4.25;;;22.90;99.90;;;;;;5083531;28;20032;-76
2023/07/22 06:16:32;;;;;;;6.15;4.03;;;23.00;99.90;;;;;;5083991;28;20024;-75
2023/07/22 06:18:58;;;;;;;5.68;4.05;;;23.00;99.90;;;;;;5068255;28;20020;-76
2023/07/22 06:21:23;;;;;;;4.72;3.97;;;23.10;99.90;;;;;;5083573;28;20060;-76
2023/07/22 06:23:49;;;;;;;5.00;3.75;;;23.10;99.90;;;;;;5087113;28;20378;-76
2023/07/22 06:26:15;;;;;;;7.32;3.97;;;23.10;99.90;;;;;;5090535;28;20032;-76
2023/07/22 06:28:40;;;;;;;5.00;4.18;;;23.10;99.90;;;;;;5078215;28;20479;-75
2023/07/22 06:31:06;;;;;;;6.78;4.82;;;23.30;99.90;;;;;;5062001;28;20453;-76
2023/07/22 06:33:32;;;;;;;6.30;3.38;;;23.30;99.90;;;;;;5088231;28;20097;-76
2023/07/22 06:35:59;;;;;;;5.78;3.58;;;23.40;99.90;;;;;;5095535;28;20111;-76
2023/07/22 06:38:24;;;;;;;4.18;3.78;;;23.40;99.90;;;;;;5075865;28;20115;-76
2023/07/22 06:40:52;;;;;;;7.15;3.88;;;23.50;99.90;;;;;;5088069;28;20462;-76
2023/07/22 06:43:18;;;;;;;4.25;3.17;;;23.60;99.90;;;;;;5069989;28;20052;-76
2023/07/22 06:45:44;;;;;;;4.78;3.20;;;23.60;99.90;;;;;;5083408;28;20091;-77
2023/07/22 06:48:10;;;;;;;4.40;3.30;;;23.70;99.90;;;;;;5095616;28;20452;-76
2023/07/22 06:50:36;;;;;;;7.68;3.53;;;23.80;99.90;;;;;;5085853;28;20044;-76
2023/07/22 06:53:02;;;;;;;4.75;3.05;;;23.90;99.90;;;;;;5079406;28;20444;-77
2023/07/22 06:55:27;;;;;;;4.78;3.53;;;23.90;99.90;;;;;;5080672;28;20028;-76
2023/07/22 06:57:56;;;;;;;3.47;3.17;;;24.00;99.90;;;;;;5084156;28;20027;-76
2023/07/22 07:00:21;;;;;;;4.28;3.10;;;24.10;99.90;;;;;;5087350;28;20040;-77
2023/07/22 07:02:47;;;;;;;3.45;3.22;;;24.20;99.90;;;;;;5055911;28;20067;-76
2023/07/22 07:05:13;;;;;;;4.03;3.75;;;24.20;99.90;;;;;;5075988;28;20028;-75
2023/07/22 07:07:39;;;;;;;3.95;3.50;;;24.30;99.90;;;;;;5076156;28;20032;-76
2023/07/22 07:10:05;;;;;;;5.03;3.95;;;24.40;99.90;;;;;;5074888;28;20725;-76
2023/07/22 07:12:31;;;;;;;4.57;4.18;;;24.50;99.90;;;;;;5078973;28;20115;-76
2023/07/22 07:14:57;;;;;;;6.05;3.90;;;24.50;99.90;;;;;;5080179;28;20104;-76
2023/07/22 07:17:23;;;;;;;3.90;3.55;;;24.60;99.90;;;;;;5084395;28;20088;-76
2023/07/22 07:19:49;;;;;;;3.80;3.50;;;24.60;99.90;;;;;;5080117;28;20330;-75
2023/07/22 07:22:14;;;;;;;6.05;3.65;;;24.70;99.90;;;;;;5080569;28;20063;-76
2023/07/22 07:24:40;;;;;;;4.38;3.83;;;24.70;99.90;;;;;;5080484;28;20097;-75
2023/07/22 07:27:06;;;;;;;4.25;3.85;;;24.80;99.90;;;;;;5080605;28;20039;-75
2023/07/22 07:29:31;;;;;;;5.05;3.33;;;24.80;99.90;;;;;;5087257;28;20069;-76
2023/07/22 07:31:57;;;;;;;4.30;3.90;;;24.70;99.90;;;;;;5092071;28;20384;-76
2023/07/22 07:34:23;;;;;;;3.75;3.30;;;24.80;99.90;;;;;;5075943;28;20012;-76
2023/07/22 07:36:48;;;;;;;4.43;4.03;;;24.80;99.90;;;;;;5095587;28;20068;-76
2023/07/22 07:39:14;;;;;;;4.25;3.95;;;24.80;99.90;;;;;;5077155;28;20035;-75
2023/07/22 07:41:40;;;;;;;3.95;3.47;;;24.90;99.90;;;;;;5095221;28;20480;-75
2023/07/22 07:44:06;;;;;;;3.50;3.28;;;24.90;99.90;;;;;;5077011;28;20035;-77
2023/07/22 07:46:32;;;;;;;4.15;3.60;;;25.00;99.90;;;;;;5095120;28;20048;-77
2023/07/22 07:49:02;;;;;;;4.60;3.70;;;25.10;99.90;;;;;;5084329;28;20105;-77
2023/07/22 07:51:29;;;;;;;4.75;3.38;;;25.10;99.90;;;;;;5076868;28;20384;-77
2023/07/22 07:53:56;;;;;;;3.83;3.50;;;25.10;99.90;;;;;;5094930;28;20050;-76
2023/07/22 07:56:23;;;;;;;3.67;3.38;;;25.20;99.90;;;;;;5083795;28;20028;-77
2023/07/22 07:58:50;;;;;;;4.50;3.45;;;25.20;99.90;;;;;;5074643;28;20044;-76
2023/07/22 08:01:17;;;;;;;3.55;3.13;;;25.20;99.90;;;;;;5073468;28;20386;-76
2023/07/22 08:03:44;;;;;;;4.57;3.33;;;25.30;99.90;;;;;;5090824;28;20063;-76
2023/07/22 08:06:10;;;;;;;3.90;3.30;;;25.30;99.90;;;;;;5076656;28;20020;-76
2023/07/22 08:08:37;;;;;;;4.25;3.80;;;25.40;99.90;;;;;;5086202;28;20534;-76
2023/07/22 08:11:08;;;;;;;3.50;3.20;;;25.50;99.90;;;;;;5079967;28;20013;-76
2023/07/22 08:13:35;;;;;;;3.13;2.80;;;25.50;99.90;;;;;;5083145;28;20103;-77
2023/07/22 08:16:03;;;;;;;7.40;2.97;;;25.50;99.90;;;;;;5079157;28;20044;-77
2023/07/22 08:18:29;;;;;;;2.88;2.70;;;25.60;99.90;;;;;;5083338;28;20081;-77
2023/07/22 08:20:55;;;;;;;2.63;2.42;;;25.70;99.90;;;;;;5080182;28;20021;-76
2023/07/22 08:23:21;;;;;;;3.53;2.30;;;25.70;99.90;;;;;;5083852;28;20031;-76
2023/07/22 08:25:48;;;;;;;3.08;2.75;;;25.80;99.90;;;;;;5080732;28;20025;-76
2023/07/22 08:28:13;;;;;;;3.17;2.35;;;25.80;99.90;;;;;;5083374;28;20440;-77
2023/07/22 08:30:40;;;;;;;3.40;2.72;;;25.80;99.90;;;;;;5079395;28;20021;-76
2023/07/22 08:33:07;;;;;;;2.80;2.60;;;25.80;99.90;;;;;;5084367;28;20031;-77
2023/07/22 08:35:34;;;;;;;3.38;2.90;;;25.80;99.90;;;;;;5082465;28;20101;-76
2023/07/22 08:38:02;;;;;;;3.13;2.70;;;25.90;99.90;;;;;;5084425;28;20094;-76
2023/07/22 08:40:32;;;;;;;5.50;2.88;;;25.90;99.90;;;;;;5080595;28;20023;-76
2023/07/22 08:42:58;;;;;;;4.00;2.90;;;25.90;99.90;;;;;;5081044;28;20551;-76
2023/07/22 08:45:29;;;;;;;4.32;2.90;;;25.90;99.90;;;;;;5083223;28;20063;-77
2023/07/22 08:47:58;;;;;;;2.60;2.40;;;25.90;99.90;;;;;;5081850;28;20032;-76
2023/07/22 08:50:29;;;;;;;5.82;2.70;;;25.90;99.90;;;;;;5084170;28;20020;-77
2023/07/22 08:52:55;;;;;;;4.28;2.90;;;25.90;99.90;;;;;;5081586;28;20031;-76
2023/07/22 08:55:23;;;;;;;2.53;2.33;;;26.00;99.90;;;;;;5084363;28;20086;-76
2023/07/22 08:57:51;;;;;;;2.65;2.45;;;26.00;99.90;;;;;;5082960;28;20032;-77
2023/07/22 09:00:18;;;;;;;3.42;2.60;;;26.20;99.90;;;;;;5071072;28;20029;-76
2023/07/22 09:02:44;;;;;;;4.28;2.90;;;26.20;99.90;;;;;;5081670;28;20055;-76
2023/07/22 09:05:10;;;;;;;5.32;2.72;;;26.00;99.90;;;;;;5081164;28;20035;-76
2023/07/22 09:07:38;;;;;;;3.15;2.55;;;26.00;99.90;;;;;;5081546;28;20602;-76
2023/07/22 09:10:05;;;;;;;2.70;2.50;;;26.00;99.90;;;;;;5081262;28;20032;-77
2023/07/22 09:12:39;;;;;;;3.00;2.80;;;26.10;99.90;;;;;;5079787;28;20061;-76
2023/07/22 09:15:09;;;;;;;3.35;3.05;;;26.20;99.90;;;;;;5080351;28;20048;-76
2023/07/22 09:17:35;;;;;;;2.15;1.95;;;26.20;99.90;;;;;;5065182;28;20433;-77
2023/07/22 09:20:03;;;;;;;2.80;2.60;;;26.30;99.90;;;;;;5080546;28;20074;-76
2023/07/22 09:22:29;;;;;;;2.60;2.40;;;26.30;99.90;;;;;;5082688;28;20481;-76
2023/07/22 09:25:18;;;;;;;2.72;2.63;;;26.30;99.90;;;;;;5080542;28;20256;-76
2023/07/22 09:27:45;;;;;;;3.88;2.38;;;26.30;99.90;;;;;;5079585;28;20035;-76
2023/07/22 09:30:27;;;;;;;2.67;2.47;;;26.20;99.90;;;;;;5061800;28;20024;-76
2023/07/22 09:32:55;;;;;;;3.83;2.75;;;26.20;99.90;;;;;;5079507;28;20491;-77
2023/07/22 09:35:21;;;;;;;2.85;2.63;;;26.20;99.90;;;;;;5081860;28;20389;-77
2023/07/22 09:37:48;;;;;;;2.95;2.67;;;26.10;99.90;;;;;;5081309;28;20103;-76
2023/07/22 09:40:16;;;;;;;2.75;2.55;;;26.00;99.90;;;;;;5081729;28;20039;-76
2023/07/22 09:42:54;;;;;;;2.95;2.67;;;25.90;99.90;;;;;;5070685;28;20401;-76
2023/07/22 09:45:22;;;;;;;14.25;5.38;;;25.80;99.90;;;;;;5069231;28;20502;-76
2023/07/22 09:47:50;;;;;;;8.93;3.85;;;25.60;99.90;;;;;;5079892;28;20511;-76
2023/07/22 09:50:22;;;;;;;12.25;5.65;;;25.40;99.90;;;;;;5064634;28;20497;-74
2023/07/22 09:53:04;;;;;;;20.50;7.23;;;25.10;99.90;;;;;;5080803;28;20078;-75
2023/07/22 09:55:32;;;;;;;4.40;3.65;;;24.40;99.90;;;;;;5079884;28;20408;-76
2023/07/22 09:58:00;;;;;;;4.10;3.78;;;23.70;99.90;;;;;;5082951;28;20024;-76
2023/07/22 10:00:35;;;;;;;7.65;4.28;;;23.30;99.90;;;;;;5079503;28;20470;-77
2023/07/22 10:03:20;;;;;;;4.43;4.03;;;23.10;99.90;;;;;;5080435;28;20024;-77
2023/07/22 10:05:50;;;;;;;10.38;4.93;;;23.20;99.90;;;;;;5083406;28;20055;-76
2023/07/22 10:08:19;;;;;;;4.20;3.80;;;23.10;99.90;;;;;;5079284;28;20534;-78
2023/07/22 10:10:45;;;;;;;4.07;3.78;;;23.10;99.90;;;;;;5080530;28;20450;-77
2023/07/22 10:13:11;;;;;;;5.03;3.72;;;23.20;99.90;;;;;;5079310;28;20043;-77
2023/07/22 10:15:37;;;;;;;4.47;4.07;;;23.00;99.90;;;;;;5083033;28;20469;-77
2023/07/22 10:18:05;;;;;;;4.60;3.65;;;22.80;99.90;;;;;;5079434;28;20105;-77
2023/07/22 10:20:34;;;;;;;3.42;3.22;;;22.60;99.90;;;;;;5072578;28;20367;-77
2023/07/22 10:23:01;;;;;;;4.63;3.22;;;22.50;99.90;;;;;;5078455;28;20050;-77
2023/07/22 10:25:27;;;;;;;3.78;3.47;;;22.40;99.90;;;;;;5082990;28;20020;-78
2023/07/22 10:27:53;;;;;;;4.10;3.67;;;22.50;99.90;;;;;;5078965;28;20027;-77
2023/07/22 10:30:19;;;;;;;4.97;3.65;;;22.30;99.90;;;;;;5082085;28;20199;-77
2023/07/22 10:32:50;;;;;;;4.25;3.50;;;22.20;99.90;;;;;;5079794;28;20040;-77
2023/07/22 10:35:31;;;;;;;4.07;3.65;;;22.10;99.90;;;;;;5081629;28;20047;-77
2023/07/22 10:38:08;;;;;;;4.97;3.78;;;22.10;99.90;;;;;;5082457;28;20020;-77
2023/07/22 10:40:49;;;;;;;6.97;4.53;;;22.10;99.90;;;;;;5083000;28;20070;-77
2023/07/22 10:43:19;;;;;;;5.57;4.40;;;21.90;99.90;;;;;;5064584;28;20371;-77
2023/07/22 10:45:53;;;;;;;5.45;4.63;;;21.80;99.90;;;;;;5082293;28;20055;-78
2023/07/22 10:48:20;;;;;;;6.35;4.65;;;21.80;99.90;;;;;;5079049;28;20040;-76
2023/07/22 10:50:53;;;;;;;12.05;5.50;;;21.80;99.90;;;;;;5083981;28;20167;-77
2023/07/22 10:53:25;;;;;;;7.78;5.38;;;21.80;99.90;;;;;;5086419;28;20027;-79
2023/07/22 10:56:11;;;;;;;7.10;4.82;;;21.70;99.90;;;;;;5084349;28;20108;-79
2023/07/22 10:58:43;;;;;;;6.80;4.40;;;21.60;99.90;;;;;;5070477;28;20489;-79
2023/07/22 11:01:30;;;;;;;6.68;4.25;;;21.50;99.90;;;;;;5074794;28;20032;-80
2023/07/22 11:04:15;;;;;;;7.15;4.28;;;21.60;99.90;;;;;;5061141;28;20991;-81
2023/07/22 11:06:43;;;;;;;7.68;4.78;;;21.50;99.90;;;;;;5081340;28;20514;-80
2023/07/22 11:09:27;;;;;;;7.20;4.70;;;21.50;99.90;;;;;;5092667;28;20113;-81
2023/07/22 11:12:01;;;;;;;9.75;4.53;;;21.60;99.90;;;;;;5074345;28;20024;-81
2023/07/22 11:14:33;;;;;;;6.43;4.68;;;21.60;99.90;;;;;;5075583;28;20029;-82
2023/07/22 11:17:07;;;;;;;4.68;4.30;;;21.60;99.90;;;;;;5075596;28;20021;-82
2023/07/22 11:19:33;;;;;;;9.82;4.30;;;21.60;99.90;;;;;;5082713;28;20069;-82
2023/07/22 11:21:59;;;;;;;6.93;4.35;;;21.60;99.90;;;;;;5073413;28;20028;-82
2023/07/22 11:24:28;;;;;;;6.85;4.07;;;21.60;99.90;;;;;;5069129;28;20032;-82
2023/07/22 11:26:54;;;;;;;4.18;3.78;;;21.70;99.90;;;;;;5074155;28;20385;-83
2023/07/22 11:29:20;;;;;;;8.15;4.55;;;21.80;99.90;;;;;;5075257;28;20029;-82
2023/07/22 11:31:48;;;;;;;5.45;4.10;;;21.90;99.90;;;;;;5077535;28;20481;-82
2023/07/22 11:34:16;;;;;;;4.68;4.05;;;22.00;99.90;;;;;;5074024;28;20029;-83
2023/07/22 11:36:42;;;;;;;6.07;4.25;;;22.10;99.90;;;;;;5073961;28;20021;-83
2023/07/22 11:39:13;;;;;;;4.18;3.63;;;22.30;99.90;;;;;;5082833;28;20042;-83
2023/07/22 11:41:41;;;;;;;6.37;4.23;;;22.60;99.90;;;;;;5077042;28;20485;-82
2023/07/22 11:44:12;;;;;;;5.00;3.83;;;22.70;99.90;;;;;;5067173;28;20027;-83
2023/07/22 11:46:53;;;;;;;4.88;3.65;;;23.00;99.90;;;;;;5092378;28;20101;-84
2023/07/22 11:49:24;;;;;;;4.60;4.28;;;23.30;99.90;;;;;;5076857;28;20036;-84
2023/07/22 11:51:50;;;;;;;5.47;3.47;;;23.50;99.90;;;;;;5076961;28;20061;-82
2023/07/22 11:54:17;;;;;;;4.75;3.70;;;23.70;99.90;;;;;;5095000;28;20482;-83
2023/07/22 11:56:43;;;;;;;7.65;3.85;;;23.80;99.90;;;;;;5076812;28;20466;-83
2023/07/22 11:59:09;;;;;;;3.90;3.50;;;23.90;99.90;;;;;;5094711;28;20013;-83
2023/07/22 12:01:35;;;;;;;3.55;3.17;;;23.90;99.90;;;;;;5076983;28;20050;-83
2023/07/22 12:04:00;;;;;;;4.65;4.25;;;23.90;99.90;;;;;;5076553;28;20477;-83
2023/07/22 12:06:27;;;;;;;4.22;3.83;;;24.20;99.90;;;;;;5076822;28;20628;-84
2023/07/22 12:08:53;;;;;;;4.50;3.50;;;24.40;99.90;;;;;;5094736;28;20024;-83
2023/07/22 12:11:23;;;;;;;4.70;3.58;;;24.60;99.90;;;;;;5076659;28;20077;-83
2023/07/22 12:14:10;;;;;;;5.60;3.80;;;24.80;99.90;;;;;;5076493;28;20377;-82
2023/07/22 12:16:41;;;;;;;4.90;3.03;;;25.00;99.90;;;;;;5094671;28;20096;-82
2023/07/22 12:19:08;;;;;;;4.97;3.42;;;25.10;99.90;;;;;;5076483;28;20557;-82
2023/07/22 12:21:34;;;;;;;4.43;3.97;;;25.30;99.90;;;;;;5076372;28;20032;-82
2023/07/22 12:24:00;;;;;;;6.43;3.50;;;25.50;99.90;;;;;;5094476;28;20027;-82
2023/07/22 12:26:26;;;;;;;4.05;3.63;;;25.60;99.90;;;;;;5076270;28;20362;-83
2023/07/22 12:28:55;;;;;;;4.18;3.78;;;25.80;99.90;;;;;;5076100;28;20043;-82
2023/07/22 12:31:20;;;;;;;4.25;3.70;;;26.10;99.90;;;;;;5094568;28;20030;-82
2023/07/22 12:33:46;;;;;;;4.18;3.42;;;26.20;99.90;;;;;;5076043;28;20111;-83
2023/07/22 12:36:12;;;;;;;4.40;3.63;;;26.30;99.90;;;;;;5059198;28;20032;-83
2023/07/22 12:38:38;;;;;;;4.07;3.60;;;26.40;99.90;;;;;;5072694;28;20112;-81
2023/07/22 12:41:03;;;;;;;4.05;3.58;;;26.60;99.90;;;;;;5074087;28;20110;-82
2023/07/22 12:43:30;;;;;;;3.35;3.05;;;26.70;99.90;;;;;;5073971;28;20482;-83
2023/07/22 12:45:56;;;;;;;3.13;2.83;;;26.80;99.90;;;;;;5075702;28;20051;-82
2023/07/22 12:48:24;;;;;;;3.33;2.97;;;26.90;99.90;;;;;;5075768;28;20024;-82